createdAt,value
2022-08-30T00:03:20.385Z,5.8
2022-08-30T00:08:19.935Z,6.1
2022-08-30T00:13:20.010Z,6.4
2022-08-30T00:18:20.269Z,6.1
2022-08-30T00:23:19.883Z,5.2
2022-08-30T00:28:19.979Z,5.5
2022-08-30T00:33:20.032Z,5.4
2022-08-30T00:38:19.876Z,5.8
2022-08-30T00:43:20.044Z,7.2
2022-08-30T00:48:20.033Z,7.6
2022-08-30T00:53:19.915Z,8.0
2022-08-30T00:58:19.836Z,7.4
2022-08-30T01:03:20.094Z,6.2
2022-08-30T01:08:19.800Z,6.4
2022-08-30T01:13:19.859Z,7.6
2022-08-30T01:18:22.307Z,8.1
2022-08-30T01:23:19.925Z,8.4
2022-08-30T01:28:19.864Z,6.0
2022-08-30T01:33:20.238Z,6.8
2022-08-30T01:38:19.905Z,7.2
2022-08-30T01:43:19.785Z,6.9
2022-08-30T01:48:20.023Z,6.6
2022-08-30T01:53:19.845Z,6.7
2022-08-30T01:58:19.840Z,7.6
2022-08-30T02:03:20.102Z,7.8
2022-08-30T02:08:19.799Z,6.6
2022-08-30T02:13:19.833Z,7.2
2022-08-30T02:18:19.962Z,6.7
2022-08-30T02:23:19.812Z,7.5
2022-08-30T02:28:19.825Z,6.3
2022-08-30T02:33:19.946Z,6.2
2022-08-30T02:38:20.135Z,6.8
2022-08-30T02:43:19.749Z,8.3
2022-08-30T02:48:19.932Z,6.6
2022-08-30T02:53:19.867Z,6.3
2022-08-30T02:58:19.700Z,7.4
2022-08-30T03:03:19.932Z,7.7
2022-08-30T03:08:19.718Z,8.0
2022-08-30T03:13:19.849Z,7.4
2022-08-30T03:18:19.584Z,6.8
2022-08-30T03:23:21.610Z,7.1
2022-08-30T03:28:19.665Z,8.5
2022-08-30T03:33:20.150Z,9.1
2022-08-30T03:38:19.589Z,8.7
2022-08-30T03:43:19.633Z,7.5
2022-08-30T03:48:19.707Z,8.8
2022-08-30T03:53:19.564Z,8.0
2022-08-30T03:58:19.526Z,8.0
2022-08-30T04:03:19.854Z,8.9
2022-08-30T04:08:19.548Z,9.2
2022-08-30T04:13:20.721Z,9.0
2022-08-30T04:18:19.785Z,9.8
2022-08-30T04:23:19.772Z,10.3
2022-08-30T04:28:19.750Z,8.4
2022-08-30T04:33:19.677Z,6.9
2022-08-30T04:38:19.423Z,6.5
2022-08-30T04:43:19.570Z,6.9
2022-08-30T04:48:19.801Z,6.8
2022-08-30T04:53:19.642Z,6.4
2022-08-30T04:58:19.480Z,6.4
2022-08-30T05:03:19.771Z,8.2
2022-08-30T05:08:24.301Z,8.4
2022-08-30T05:13:19.385Z,7.2
2022-08-30T05:18:19.763Z,8.0
2022-08-30T05:23:19.600Z,7.6
2022-08-30T05:28:21.016Z,7.3
2022-08-30T05:33:19.392Z,7.0
2022-08-30T05:38:19.329Z,7.5
2022-08-30T05:43:19.506Z,7.5
2022-08-30T05:48:19.694Z,8.2
2022-08-30T05:53:19.442Z,8.4
2022-08-30T05:58:19.355Z,9.7
2022-08-30T06:03:19.387Z,10.1
2022-08-30T06:08:19.456Z,9.0
2022-08-30T06:13:19.536Z,9.1
2022-08-30T06:18:19.255Z,10.6
2022-08-30T06:23:19.393Z,11.5
2022-08-30T06:28:19.374Z,10.1
2022-08-30T06:33:19.481Z,11.3
2022-08-30T06:38:19.241Z,10.5
2022-08-30T06:43:19.537Z,10.9
2022-08-30T06:48:19.513Z,10.3
2022-08-30T06:53:19.256Z,10.4
2022-08-30T06:58:19.196Z,9.1
2022-08-30T07:03:19.484Z,9.0
2022-08-30T07:08:19.370Z,8.1
2022-08-30T07:13:19.189Z,7.5
2022-08-30T07:18:19.299Z,8.0
2022-08-30T07:23:19.621Z,7.5
2022-08-30T07:28:19.184Z,6.4
2022-08-30T07:33:19.522Z,5.7
2022-08-30T07:38:19.200Z,6.4
2022-08-30T07:43:19.551Z,6.8
2022-08-30T07:48:19.327Z,5.6
2022-08-30T07:53:19.447Z,6.0
2022-08-30T07:58:19.527Z,4.7
2022-08-30T08:03:19.421Z,5.5
2022-08-30T08:08:19.358Z,5.1
2022-08-30T08:13:19.622Z,4.3
2022-08-30T08:18:19.122Z,4.6
2022-08-30T08:23:19.514Z,4.3
2022-08-30T08:28:19.251Z,3.7
2022-08-30T08:33:19.248Z,3.9
2022-08-30T08:38:19.140Z,9.4
2022-08-30T08:43:19.410Z,4.5
2022-08-30T08:48:19.288Z,4.2
2022-08-30T08:53:36.190Z,15.7
2022-08-30T08:58:19.126Z,4.1
2022-08-30T09:03:19.354Z,3.4
2022-08-30T09:08:19.273Z,2.9
2022-08-30T09:13:19.556Z,3.3
2022-08-30T09:18:20.036Z,3.1
2022-08-30T09:23:19.109Z,2.8
2022-08-30T09:28:19.286Z,2.9
2022-08-30T09:33:19.204Z,7.6
2022-08-30T09:38:19.161Z,6.8
2022-08-30T09:43:19.037Z,2.8
2022-08-30T09:48:19.114Z,4.4
2022-08-30T09:53:22.760Z,4.1
2022-08-30T09:58:19.377Z,7.1
2022-08-30T10:08:19.032Z,5.8
2022-08-30T10:13:19.296Z,4.5
2022-08-30T10:18:19.114Z,3.5
2022-08-30T10:23:19.286Z,3.1
2022-08-30T10:28:19.107Z,2.9
2022-08-30T10:33:19.279Z,2.1
2022-08-30T10:38:19.061Z,2.7
2022-08-30T10:43:19.045Z,2.7
2022-08-30T10:48:19.238Z,2.8
2022-08-30T10:53:19.109Z,2.0
2022-08-30T10:58:18.930Z,2.3
2022-08-30T11:03:18.981Z,2.4
2022-08-30T11:08:22.155Z,2.6
2022-08-30T11:13:19.009Z,2.5
2022-08-30T11:18:18.930Z,2.6
2022-08-30T11:23:18.963Z,1.7
2022-08-30T11:28:21.955Z,2.1
2022-08-30T11:33:18.987Z,5.7
2022-08-30T11:38:18.815Z,2.2
2022-08-30T11:43:18.854Z,2.3
2022-08-30T11:48:18.839Z,1.8
2022-08-30T11:53:18.839Z,3.7
2022-08-30T11:58:18.903Z,2.4
2022-08-30T12:03:19.513Z,1.7
2022-08-30T12:08:18.800Z,2.2
2022-08-30T12:13:19.985Z,2.2
2022-08-30T12:18:19.064Z,2.0
2022-08-30T12:23:19.134Z,1.9
2022-08-30T12:28:28.951Z,2.1
2022-08-30T12:33:18.811Z,1.7
2022-08-30T12:38:19.094Z,1.5
2022-08-30T12:43:18.826Z,1.6
2022-08-30T12:48:18.947Z,1.9
2022-08-30T12:53:19.072Z,1.7
2022-08-30T12:58:19.145Z,2.5
2022-08-30T13:03:24.195Z,1.9
2022-08-30T13:08:18.867Z,1.8
2022-08-30T13:13:18.809Z,1.7
2022-08-30T13:18:27.002Z,1.7
2022-08-30T13:23:24.034Z,2.4
2022-08-30T13:28:18.857Z,2.1
2022-08-30T13:33:18.887Z,1.7
2022-08-30T13:38:19.305Z,2.1
2022-08-30T13:43:18.791Z,2.3
2022-08-30T13:48:25.204Z,2.0
2022-08-30T13:53:51.947Z,2.1
2022-08-30T13:58:18.989Z,1.9
2022-08-30T14:03:18.985Z,2.0
2022-08-30T14:08:48.240Z,2.5
2022-08-30T14:13:19.499Z,2.3
2022-08-30T14:18:19.046Z,1.8
2022-08-30T14:23:18.609Z,2.1
2022-08-30T14:28:18.861Z,2.3
2022-08-30T14:33:18.837Z,2.1
2022-08-30T14:38:18.823Z,2.3
2022-08-30T14:43:18.640Z,1.9
2022-08-30T14:48:18.822Z,2.0
2022-08-30T14:53:18.718Z,1.9
2022-08-30T14:58:18.829Z,1.6
2022-08-30T15:03:18.639Z,1.5
2022-08-30T15:08:19.006Z,2.0
2022-08-30T15:13:18.798Z,1.7
2022-08-30T16:38:18.839Z,2.8
2022-08-30T16:43:19.853Z,3.3
2022-08-30T16:48:18.552Z,2.6
2022-08-30T16:53:18.678Z,3.3
2022-08-30T16:58:19.164Z,3.2
2022-08-30T17:03:18.590Z,3.3
2022-08-30T17:08:18.716Z,3.6
2022-08-30T17:13:18.427Z,3.7
2022-08-30T17:18:19.003Z,3.5
2022-08-30T17:28:18.692Z,3.7
2022-08-30T17:33:18.446Z,4.1
2022-08-30T17:38:18.754Z,3.6
2022-08-30T17:43:19.737Z,3.7
2022-08-30T17:48:18.597Z,4.1
2022-08-30T17:53:18.476Z,4.2
2022-08-30T17:58:18.781Z,4.4
2022-08-30T18:03:19.741Z,4.8
2022-08-30T18:08:18.752Z,4.5
2022-08-30T18:13:18.475Z,4.4
2022-08-30T18:18:19.512Z,4.3
2022-08-30T18:23:18.344Z,4.3
2022-08-30T18:28:18.450Z,5.0
2022-08-30T18:33:19.072Z,5.2
2022-08-30T18:38:18.567Z,5.3
2022-08-30T18:43:18.384Z,6.1
2022-08-30T18:48:18.626Z,6.0
2022-08-30T18:53:28.691Z,6.4
2022-08-30T18:58:18.794Z,7.2
2022-08-30T19:03:18.313Z,7.6
2022-08-30T19:08:18.545Z,7.2
2022-08-30T19:13:18.557Z,6.9
2022-08-30T19:18:18.466Z,5.7
2022-08-30T19:23:27.762Z,6.3
2022-08-30T19:28:18.520Z,7.1
2022-08-30T19:33:18.540Z,5.8
2022-08-30T19:38:18.407Z,6.2
2022-08-30T19:43:18.925Z,6.3
2022-08-30T19:48:19.177Z,6.3
2022-08-30T19:53:18.429Z,7.0
2022-08-30T19:58:18.349Z,6.7
2022-08-30T20:03:18.455Z,5.4
2022-08-30T20:08:18.300Z,5.3
2022-08-30T20:13:18.317Z,6.1
2022-08-30T20:18:18.162Z,6.4
2022-08-30T20:23:21.698Z,6.1
2022-08-30T20:28:18.412Z,6.7
2022-08-30T20:33:18.189Z,6.8
2022-08-30T20:38:18.317Z,5.6
2022-08-30T20:43:18.080Z,5.6
2022-08-30T20:48:18.303Z,5.3
2022-08-30T20:53:18.127Z,5.8
2022-08-30T20:58:18.367Z,5.6
2022-08-30T21:03:27.718Z,4.7
2022-08-30T21:08:18.390Z,4.3
2022-08-30T21:13:18.125Z,3.9
2022-08-30T21:18:18.273Z,3.5
2022-08-30T21:23:18.160Z,3.4
2022-08-30T21:28:18.470Z,3.6
2022-08-30T21:33:18.088Z,3.4
2022-08-30T21:38:18.364Z,3.8
2022-08-30T21:43:18.249Z,3.6
2022-08-30T21:48:18.263Z,3.8
2022-08-30T21:53:18.438Z,3.4
2022-08-30T21:58:18.135Z,3.3
2022-08-30T22:03:18.359Z,4.2
2022-08-30T22:08:17.948Z,3.5
2022-08-30T22:13:18.351Z,3.3
2022-08-30T22:18:18.029Z,3.6
2022-08-30T22:23:19.002Z,3.6
2022-08-30T22:28:18.291Z,3.4
2022-08-30T22:33:18.226Z,3.9
2022-08-30T22:38:18.016Z,4.5
2022-08-30T22:43:18.297Z,3.5
2022-08-30T22:48:18.042Z,4.3
2022-08-30T22:53:18.209Z,4.0
2022-08-30T22:58:18.156Z,3.8
2022-08-30T23:03:18.043Z,4.3
2022-08-30T23:08:18.043Z,4.3
2022-08-30T23:13:18.307Z,4.7
2022-08-30T23:18:17.959Z,4.5
2022-08-30T23:23:18.224Z,4.8
2022-08-30T23:28:20.964Z,4.6
2022-08-30T23:33:17.950Z,5.1
2022-08-30T23:38:18.050Z,4.2
2022-08-30T23:43:17.947Z,4.6
2022-08-30T23:48:17.881Z,4.5
2022-08-30T23:53:18.050Z,4.1
2022-08-30T23:58:18.142Z,4.1
